Airfield :
LOGIN :

Register | Disclaimer

   EN    FR    IT 

 










Legend :    VFR   Marginal VFR   IFR   Intensive IFR   Very Intensive IFR
Visi :
Ceiling :
>= 8 km
>= 3000ft
5 to 8 km
1000 to 3000 ft
1500m to 5 km
500 to 1000 ft
800 to 1500m
200 to 500 ft
< 800m
< 200 ft
Symbols :   Thunderstorms  Fog  Heavy snow  Heavy precipitations  Wind > 20 kt
SIGMETs :     Misc.  Thunderstorms  Icing  Turbulence  Mountain Waves  Volcanic Ashes






- Airport Elevation : 154 ft
- IATA code : SZZ


EPSC - Szczecin Goleniow

CURRENT METAR :
  • 291230Z 14012KT CAVOK 07/01 Q1017

EXPIRED METARs :
  • 291200Z 15013KT CAVOK 06/M00 Q1017
  • 291130Z 15014KT CAVOK 06/M00 Q1018
  • 291100Z 15014KT CAVOK 05/M00 Q1018
  • 291030Z 14017KT CAVOK 05/00 Q1019
  • 291000Z 16014KT 9999 FEW013 04/01 Q1019
  • 290930Z 15014KT 9999 FEW012 03/M00 Q1019
  • 290900Z 15015KT 9999 BKN012 02/M00 Q1019
  • 290830Z 14014KT 9999 SCT010 02/M01 Q1019
  • 290800Z 15013KT 9999 FEW010 02/M00 Q1020

TAF TAF EPSC
Valid from the 29 at 12:00 until the 01 at 12:00 UTC


291130Z 2912/0112 15013KT CAVOK
BECMG 2917/2920 BKN010 BKN016
TEMPO 2917/2922 BKN008
TEMPO 2922/0108 3000 BR OVC005
PROB40
TEMPO 0100/0107 1400 BR OVC003
BECMG 0109/0111 BKN020



MET'MAP, your aeronautical weather chart ! - Copyright ORBIFLY December 2007 - Disclaimer

ORBIFLY MET'MAP TEAM :

Programming & Development : Alexandra Zaïnal
Original concept : Baudouin d'Aumeries
Technical & hardware support : Manuel Goepfert
Assistance : Marc-Olivier Méhu




SOURCES & CREDITS :

   NOAA